createdAt,value
2024-03-09T00:00:44.032Z,20.48
2024-03-09T00:03:12.766Z,25.98
2024-03-09T00:05:43.272Z,27.00
2024-03-09T00:08:11.293Z,20.83
2024-03-09T00:10:39.011Z,22.40
2024-03-09T00:13:06.373Z,21.23
2024-03-09T00:15:33.332Z,19.60
2024-03-09T00:18:00.029Z,22.88
2024-03-09T00:20:36.269Z,19.85
2024-03-09T00:23:07.190Z,19.90
2024-03-09T00:25:34.769Z,19.17
2024-03-09T00:28:01.519Z,20.05
2024-03-09T00:30:31.444Z,20.00
2024-03-09T00:33:03.117Z,20.52
2024-03-09T00:35:31.344Z,20.63
2024-03-09T00:37:59.779Z,20.15
2024-03-09T00:40:29.638Z,20.95
2024-03-09T00:43:01.238Z,19.73
2024-03-09T00:45:28.179Z,20.85
2024-03-09T00:47:54.989Z,21.48
2024-03-09T00:50:22.946Z,20.02
2024-03-09T00:52:50.134Z,19.98
2024-03-09T00:55:17.060Z,19.73
2024-03-09T00:57:49.418Z,20.38
2024-03-09T01:00:18.006Z,20.08
2024-03-09T01:02:46.997Z,19.85
2024-03-09T01:05:16.875Z,19.92
2024-03-09T01:07:43.881Z,20.05
2024-03-09T01:10:10.675Z,19.65
2024-03-09T01:12:37.602Z,19.52
2024-03-09T01:15:08.500Z,19.40
2024-03-09T01:17:37.603Z,18.52
2024-03-09T01:20:09.070Z,18.85
2024-03-09T01:22:36.901Z,19.40
2024-03-09T01:25:04.213Z,19.30
2024-03-09T01:27:31.533Z,19.20
2024-03-09T01:30:01.211Z,18.75
2024-03-09T01:32:31.464Z,18.73
2024-03-09T01:34:58.410Z,19.45
2024-03-09T01:37:26.321Z,18.65
2024-03-09T01:39:53.210Z,18.17
2024-03-09T01:42:20.165Z,18.33
2024-03-09T01:44:51.172Z,17.30
2024-03-09T01:47:26.901Z,18.15
2024-03-09T01:49:54.897Z,17.73
2024-03-09T01:52:24.822Z,17.52
2024-03-09T01:54:55.216Z,17.25
2024-03-09T01:57:21.807Z,17.90
2024-03-09T01:59:51.065Z,17.17
2024-03-09T02:02:17.891Z,18.00
2024-03-09T02:04:45.828Z,16.83
2024-03-09T02:07:15.908Z,17.10
2024-03-09T02:09:44.175Z,18.13
2024-03-09T02:12:11.760Z,17.30
2024-03-09T02:14:38.559Z,16.15
2024-03-09T02:17:12.654Z,17.17
2024-03-09T02:19:42.674Z,16.98
2024-03-09T02:22:12.853Z,17.15
2024-03-09T02:24:43.837Z,16.88
2024-03-09T02:27:11.347Z,17.40
2024-03-09T02:29:40.608Z,17.80
2024-03-09T02:32:08.209Z,16.20
2024-03-09T02:34:35.073Z,17.58
2024-03-09T02:37:01.628Z,16.40
2024-03-09T02:39:30.031Z,16.83
2024-03-09T02:41:59.369Z,16.83
2024-03-09T02:44:28.039Z,16.70
2024-03-09T02:46:54.894Z,16.13
2024-03-09T02:49:21.680Z,16.88
2024-03-09T02:51:48.339Z,16.75
2024-03-09T02:54:16.125Z,16.83
2024-03-09T02:56:42.614Z,16.20
2024-03-09T02:59:09.300Z,15.55
2024-03-09T03:01:37.877Z,17.38
2024-03-09T03:04:04.651Z,15.95
2024-03-09T03:06:33.405Z,16.45
2024-03-09T03:09:17.103Z,15.75
2024-03-09T03:11:44.413Z,15.95
2024-03-09T03:14:11.923Z,15.57
2024-03-09T03:16:38.907Z,16.10
2024-03-09T03:19:10.428Z,15.27
2024-03-09T03:21:40.937Z,15.90
2024-03-09T03:24:10.240Z,15.98
2024-03-09T03:26:36.788Z,15.90
2024-03-09T03:29:03.482Z,15.73
2024-03-09T03:31:30.700Z,15.35
2024-03-09T03:33:57.561Z,15.65
2024-03-09T03:36:24.905Z,15.30
2024-03-09T03:38:51.671Z,15.02
2024-03-09T03:41:23.754Z,15.63
2024-03-09T03:43:51.395Z,15.38
2024-03-09T03:46:18.019Z,15.13
2024-03-09T03:48:48.373Z,15.27
2024-03-09T03:51:16.451Z,15.63
2024-03-09T03:53:44.519Z,15.38
2024-03-09T03:56:11.999Z,15.07
2024-03-09T03:58:39.332Z,14.95
2024-03-09T04:01:07.277Z,14.60
2024-03-09T04:03:34.802Z,14.65
2024-03-09T04:06:03.355Z,14.85
2024-03-09T04:08:30.070Z,15.70
2024-03-09T04:10:57.131Z,15.27
2024-03-09T04:13:24.990Z,14.23
2024-03-09T04:15:56.260Z,14.65
2024-03-09T04:18:23.328Z,14.50
2024-03-09T04:20:50.500Z,14.07
2024-03-09T04:23:17.663Z,14.83
2024-03-09T04:25:46.001Z,15.23
2024-03-09T04:28:15.749Z,14.13
2024-03-09T04:30:44.077Z,14.17
2024-03-09T04:33:12.452Z,14.35
2024-03-09T04:35:46.178Z,14.63
2024-03-09T04:38:14.667Z,15.30
2024-03-09T04:40:44.625Z,15.10
2024-03-09T04:43:14.158Z,14.32
2024-03-09T04:45:41.040Z,14.82
2024-03-09T04:48:07.909Z,14.82
2024-03-09T04:50:34.847Z,15.02
2024-03-09T04:53:04.645Z,14.60
2024-03-09T04:55:31.656Z,14.37
2024-03-09T04:57:59.320Z,14.27
2024-03-09T05:00:29.884Z,14.32
2024-03-09T05:02:57.166Z,14.60
2024-03-09T05:05:30.241Z,15.10
2024-03-09T05:07:56.811Z,14.98
2024-03-09T05:10:23.897Z,15.90
2024-03-09T05:12:54.832Z,15.50
2024-03-09T05:15:25.901Z,14.35
2024-03-09T05:18:02.075Z,15.23
2024-03-09T05:20:29.856Z,14.60
2024-03-09T05:22:58.885Z,15.55
2024-03-09T05:25:26.301Z,14.73
2024-03-09T05:27:54.187Z,15.07
2024-03-09T05:30:23.829Z,14.10
2024-03-09T05:33:02.841Z,14.67
2024-03-09T05:35:31.264Z,14.30
2024-03-09T05:38:01.664Z,14.57
2024-03-09T05:40:31.131Z,14.30
2024-03-09T05:43:01.115Z,14.50
2024-03-09T05:45:28.063Z,14.77
2024-03-09T05:47:56.064Z,14.20
2024-03-09T05:50:24.333Z,14.07
2024-03-09T05:52:55.293Z,14.13
2024-03-09T05:55:23.340Z,15.03
2024-03-09T05:57:51.231Z,14.10
2024-03-09T06:00:30.444Z,13.83
2024-03-09T06:02:58.858Z,14.27
2024-03-09T06:05:34.973Z,14.00
2024-03-09T06:08:03.579Z,15.00
2024-03-09T06:10:31.035Z,14.25
2024-03-09T06:12:57.742Z,14.80
2024-03-09T06:15:25.226Z,14.37
2024-03-09T06:17:55.253Z,13.77
2024-03-09T06:20:22.112Z,14.47
2024-03-09T06:22:48.980Z,14.33
2024-03-09T06:25:31.288Z,13.63
2024-03-09T06:28:15.505Z,13.67
2024-03-09T06:30:42.594Z,13.00
2024-03-09T06:33:10.790Z,13.13
2024-03-09T06:35:37.490Z,13.97
2024-03-09T06:38:06.711Z,13.07
2024-03-09T06:40:38.576Z,13.98
2024-03-09T06:43:07.859Z,13.07
2024-03-09T06:45:39.478Z,13.33
2024-03-09T06:48:06.564Z,13.10
2024-03-09T06:50:34.402Z,13.63
2024-03-09T06:53:01.993Z,13.57
2024-03-09T06:55:30.627Z,13.47
2024-03-09T06:58:03.248Z,14.15
2024-03-09T07:00:32.226Z,14.27
2024-03-09T07:02:59.839Z,12.17
2024-03-09T07:05:35.544Z,12.88
2024-03-09T07:08:04.614Z,12.63
2024-03-09T07:10:33.275Z,12.87
2024-03-09T07:13:00.099Z,12.32
2024-03-09T07:15:27.885Z,12.37
2024-03-09T07:17:57.428Z,12.48
2024-03-09T07:20:25.122Z,12.13
2024-03-09T07:22:52.922Z,12.73
2024-03-09T07:25:26.070Z,13.43
2024-03-09T07:27:55.562Z,12.43
2024-03-09T07:30:22.910Z,12.35
2024-03-09T07:32:54.516Z,13.07
2024-03-09T07:35:22.305Z,12.95
2024-03-09T07:38:02.948Z,12.50
2024-03-09T07:40:35.465Z,12.52
2024-03-09T07:43:03.119Z,11.70
2024-03-09T07:45:31.017Z,12.13
2024-03-09T07:48:00.574Z,13.02
2024-03-09T07:50:28.676Z,12.50
2024-03-09T07:52:57.519Z,12.55
2024-03-09T07:55:28.524Z,12.48
2024-03-09T07:58:09.069Z,12.43
2024-03-09T08:00:45.274Z,12.45
2024-03-09T08:03:14.129Z,11.70
2024-03-09T08:05:40.772Z,12.60
2024-03-09T08:08:11.811Z,12.25
2024-03-09T08:10:53.130Z,12.38
2024-03-09T08:13:20.989Z,12.73
2024-03-09T08:15:48.107Z,12.05
2024-03-09T08:18:14.861Z,12.55
2024-03-09T08:20:42.823Z,12.02
2024-03-09T08:23:09.628Z,12.25
2024-03-09T08:25:37.322Z,11.80
2024-03-09T08:28:04.892Z,12.18
2024-03-09T08:30:32.309Z,11.05
2024-03-09T08:33:02.665Z,11.48
2024-03-09T08:35:31.069Z,10.93
2024-03-09T08:37:58.056Z,12.15
2024-03-09T08:40:26.881Z,10.73
2024-03-09T08:42:53.593Z,11.18
2024-03-09T08:45:21.923Z,11.93
2024-03-09T08:47:49.261Z,10.75
2024-03-09T08:50:17.552Z,11.02
2024-03-09T08:52:48.062Z,10.85
2024-03-09T08:55:15.358Z,11.05
2024-03-09T08:57:47.515Z,11.40
2024-03-09T09:00:16.686Z,11.38
2024-03-09T09:02:43.605Z,11.80
2024-03-09T09:05:13.669Z,11.55
2024-03-09T09:07:47.845Z,11.40
2024-03-09T09:10:19.586Z,11.98
2024-03-09T09:12:46.741Z,11.88
2024-03-09T09:15:14.287Z,10.98
2024-03-09T09:17:44.122Z,10.77
2024-03-09T09:20:13.001Z,11.20
2024-03-09T09:22:45.327Z,11.25
2024-03-09T09:25:14.006Z,11.23
2024-03-09T09:27:41.645Z,11.70
2024-03-09T09:30:09.956Z,10.82
2024-03-09T09:32:36.808Z,11.00
2024-03-09T09:35:04.197Z,11.30
2024-03-09T09:37:30.959Z,11.30
2024-03-09T09:39:57.599Z,10.48
2024-03-09T09:42:31.145Z,11.48
2024-03-09T09:45:01.604Z,10.45
2024-03-09T09:47:30.602Z,11.48
2024-03-09T09:49:58.147Z,10.13
2024-03-09T09:52:25.288Z,10.68
2024-03-09T09:54:56.217Z,11.07
2024-03-09T09:57:23.292Z,10.85
2024-03-09T09:59:49.812Z,11.65
2024-03-09T10:02:18.270Z,11.80
2024-03-09T10:04:45.261Z,10.70
2024-03-09T10:07:12.007Z,11.88
2024-03-09T10:09:38.625Z,11.15
2024-03-09T10:12:05.806Z,10.70
2024-03-09T10:14:32.950Z,10.85
2024-03-09T10:17:10.784Z,10.43
2024-03-09T10:19:38.647Z,10.50
2024-03-09T10:22:05.537Z,11.23
2024-03-09T10:24:32.083Z,11.02
2024-03-09T10:27:08.251Z,10.88
2024-03-09T10:29:34.768Z,11.10
2024-03-09T10:32:01.775Z,10.77
2024-03-09T10:34:31.783Z,11.55
2024-03-09T10:37:05.023Z,11.52
2024-03-09T10:39:33.420Z,11.32
2024-03-09T10:42:02.683Z,10.10
2024-03-09T10:44:29.851Z,11.18
2024-03-09T10:47:05.169Z,10.05
2024-03-09T10:49:33.405Z,10.80
2024-03-09T10:52:04.362Z,11.10
2024-03-09T10:54:44.344Z,10.90
2024-03-09T10:57:16.481Z,10.38
2024-03-09T10:59:43.695Z,10.27
2024-03-09T11:02:11.380Z,10.13
2024-03-09T11:04:39.672Z,9.90
2024-03-09T11:07:06.569Z,10.25
2024-03-09T11:09:34.311Z,10.25
2024-03-09T11:12:02.701Z,9.82
2024-03-09T11:14:29.436Z,10.65
2024-03-09T11:16:57.198Z,10.80
2024-03-09T11:19:28.122Z,10.65
2024-03-09T11:21:54.861Z,10.23
2024-03-09T11:24:22.213Z,10.15
2024-03-09T11:26:54.377Z,10.60
2024-03-09T11:29:23.158Z,10.20
2024-03-09T11:31:58.707Z,10.02
2024-03-09T11:34:27.601Z,9.88
2024-03-09T11:37:00.062Z,10.27
2024-03-09T11:39:29.453Z,9.90
2024-03-09T11:41:58.626Z,9.55
2024-03-09T11:44:30.760Z,9.35
2024-03-09T11:46:57.899Z,8.77
2024-03-09T11:49:28.570Z,8.90
2024-03-09T11:51:59.013Z,8.13
2024-03-09T11:54:28.978Z,8.48
2024-03-09T11:56:59.427Z,8.18
2024-03-09T11:59:27.090Z,8.15
2024-03-09T12:02:03.440Z,8.07
2024-03-09T12:04:33.868Z,7.75
2024-03-09T12:07:02.667Z,8.13
2024-03-09T12:09:30.525Z,7.95
2024-03-09T12:11:58.070Z,8.02
2024-03-09T12:14:24.812Z,8.00
2024-03-09T12:16:52.421Z,8.05
2024-03-09T12:19:20.198Z,7.80
2024-03-09T12:21:47.711Z,7.88
2024-03-09T12:24:14.838Z,7.30
2024-03-09T12:26:42.690Z,7.28
2024-03-09T12:29:14.141Z,6.80
2024-03-09T12:31:41.650Z,7.30
2024-03-09T12:34:12.089Z,6.93
2024-03-09T12:36:50.262Z,6.68
2024-03-09T12:39:17.622Z,6.45
2024-03-09T12:41:51.205Z,9.00
2024-03-09T12:44:17.837Z,5.80
2024-03-09T12:46:45.056Z,5.63
2024-03-09T12:49:14.691Z,6.00
2024-03-09T12:51:42.941Z,6.85
2024-03-09T12:54:11.335Z,5.95
2024-03-09T12:56:40.020Z,5.50
2024-03-09T12:59:10.545Z,5.70
2024-03-09T13:01:39.168Z,5.38
2024-03-09T13:04:10.881Z,4.78
2024-03-09T13:06:47.298Z,4.70
2024-03-09T13:09:16.484Z,4.57
2024-03-09T13:11:44.218Z,4.38
2024-03-09T13:14:11.144Z,5.00
2024-03-09T13:16:41.917Z,4.50
2024-03-09T13:19:11.106Z,4.68
2024-03-09T13:21:38.954Z,4.60
2024-03-09T13:24:10.105Z,4.65
2024-03-09T13:26:38.198Z,4.78
2024-03-09T13:29:05.032Z,4.78
2024-03-09T13:31:34.290Z,4.65
2024-03-09T13:34:07.057Z,4.88
2024-03-09T13:36:33.928Z,4.47
2024-03-09T13:39:01.650Z,4.50
2024-03-09T13:41:29.121Z,4.10
2024-03-09T13:43:57.805Z,4.03
2024-03-09T13:46:25.412Z,4.15
2024-03-09T13:48:52.059Z,3.97
2024-03-09T13:51:18.839Z,4.03
2024-03-09T13:53:46.434Z,4.35
2024-03-09T13:56:20.889Z,4.10
2024-03-09T13:58:49.051Z,4.28
2024-03-09T14:01:21.027Z,4.20
2024-03-09T14:03:48.896Z,4.10
2024-03-09T14:06:16.549Z,4.55
2024-03-09T14:08:45.952Z,4.53
2024-03-09T14:11:18.159Z,4.63
2024-03-09T14:13:45.853Z,4.47
2024-03-09T14:16:14.989Z,4.93
2024-03-09T14:18:45.837Z,5.13
2024-03-09T14:21:18.829Z,5.53
2024-03-09T14:23:47.352Z,5.65
2024-03-09T14:26:14.406Z,5.53
2024-03-09T14:28:43.771Z,5.40
2024-03-09T14:31:16.663Z,5.45
2024-03-09T14:33:45.211Z,5.65
2024-03-09T14:36:16.442Z,6.00
2024-03-09T14:38:43.371Z,5.45
2024-03-09T14:41:10.777Z,6.38
2024-03-09T14:43:42.274Z,5.88
2024-03-09T14:46:11.686Z,4.72
2024-03-09T14:48:38.985Z,5.55
2024-03-09T14:51:09.349Z,5.30
2024-03-09T14:53:38.507Z,5.47
2024-03-09T14:56:08.422Z,4.95
2024-03-09T14:58:42.073Z,5.25
2024-03-09T15:01:13.868Z,5.60
2024-03-09T15:03:45.572Z,4.88
2024-03-09T15:06:12.652Z,4.82
2024-03-09T15:08:40.630Z,4.50
2024-03-09T15:11:17.782Z,4.97
2024-03-09T15:13:49.926Z,4.68
2024-03-09T15:16:23.902Z,4.63
2024-03-09T15:18:56.398Z,4.60
2024-03-09T15:21:27.392Z,4.78
2024-03-09T15:23:59.570Z,3.83
2024-03-09T15:26:29.882Z,3.67
2024-03-09T15:28:58.194Z,3.63
2024-03-09T15:31:25.352Z,3.35
2024-03-09T15:33:54.135Z,3.20
2024-03-09T15:36:21.406Z,2.97
2024-03-09T15:38:49.271Z,2.90
2024-03-09T15:41:16.948Z,3.40
2024-03-09T15:43:44.647Z,2.95
2024-03-09T15:46:12.986Z,3.33
2024-03-09T15:48:39.865Z,2.80
2024-03-09T15:51:06.610Z,2.40
2024-03-09T15:53:39.034Z,2.30
2024-03-09T15:56:09.279Z,1.73
2024-03-09T15:58:41.003Z,2.03
2024-03-09T16:01:08.994Z,2.17
2024-03-09T16:03:39.195Z,2.05
2024-03-09T16:06:05.979Z,1.65
2024-03-09T16:08:34.418Z,1.70
2024-03-09T16:11:03.558Z,1.58
2024-03-09T16:13:31.777Z,1.70
2024-03-09T16:16:07.573Z,1.88
2024-03-09T16:18:34.373Z,1.70
2024-03-09T16:21:19.981Z,1.70
2024-03-09T16:23:47.310Z,1.58
2024-03-09T16:26:14.692Z,1.27
2024-03-09T16:28:43.348Z,1.65
2024-03-09T16:31:12.414Z,1.40
2024-03-09T16:33:39.691Z,1.42
2024-03-09T16:36:06.619Z,1.20
2024-03-09T16:38:34.140Z,1.20
2024-03-09T16:41:02.891Z,1.20
2024-03-09T16:43:34.256Z,1.10
2024-03-09T16:46:07.695Z,1.38
2024-03-09T16:48:36.632Z,1.17
2024-03-09T16:51:05.799Z,1.60
2024-03-09T16:53:33.911Z,1.40
2024-03-09T16:56:05.175Z,1.30
2024-03-09T16:58:32.983Z,1.30
2024-03-09T17:01:05.231Z,1.30
2024-03-09T17:03:32.917Z,1.40
2024-03-09T17:06:08.556Z,1.40
2024-03-09T17:08:37.044Z,1.30
2024-03-09T17:11:11.029Z,1.30
2024-03-09T17:13:41.681Z,1.60
2024-03-09T17:16:11.718Z,1.20
2024-03-09T17:18:39.668Z,1.30
2024-03-09T17:21:06.504Z,1.27
2024-03-09T17:23:34.059Z,1.20
2024-03-09T17:26:01.532Z,1.30
2024-03-09T17:28:28.164Z,1.20
2024-03-09T17:30:57.388Z,1.20
2024-03-09T17:33:23.948Z,1.17
2024-03-09T17:35:53.506Z,1.10
2024-03-09T17:38:22.204Z,1.65
2024-03-09T17:40:49.345Z,1.25
2024-03-09T17:43:16.692Z,1.00
2024-03-09T17:45:43.350Z,1.20
2024-03-09T17:48:09.939Z,1.13
2024-03-09T17:50:37.259Z,1.08
2024-03-09T17:53:06.254Z,1.08
2024-03-09T17:55:32.901Z,1.33
2024-03-09T17:58:02.404Z,1.10
2024-03-09T18:00:35.321Z,1.20
2024-03-09T18:03:03.103Z,1.50
2024-03-09T18:05:38.172Z,1.33
2024-03-09T18:08:09.963Z,1.50
2024-03-09T18:10:42.448Z,1.60
2024-03-09T18:13:11.643Z,1.65
2024-03-09T18:15:39.123Z,1.80
2024-03-09T18:18:13.102Z,1.88
2024-03-09T18:20:44.511Z,2.00
2024-03-09T18:23:12.764Z,2.20
2024-03-09T18:25:39.941Z,2.20
2024-03-09T18:28:09.864Z,2.72
2024-03-09T18:30:37.018Z,2.22
2024-03-09T18:33:08.319Z,2.42
2024-03-09T18:35:39.139Z,2.45
2024-03-09T18:38:07.062Z,2.40
2024-03-09T18:40:33.796Z,2.50
2024-03-09T18:43:00.757Z,2.28
2024-03-09T18:45:32.282Z,2.33
2024-03-09T18:47:59.194Z,2.10
2024-03-09T18:50:26.683Z,1.92
2024-03-09T18:52:54.986Z,1.90
2024-03-09T18:55:21.663Z,1.90
2024-03-09T18:57:48.749Z,1.70
2024-03-09T19:00:19.172Z,1.70
2024-03-09T19:02:52.011Z,1.77
2024-03-09T19:05:23.921Z,2.17
2024-03-09T19:07:53.035Z,2.90
2024-03-09T19:10:20.131Z,4.40
2024-03-09T19:12:47.658Z,5.95
2024-03-09T19:15:15.079Z,6.35
2024-03-09T19:17:42.961Z,7.03
2024-03-09T19:20:13.064Z,6.65
2024-03-09T19:22:40.953Z,7.78
2024-03-09T19:25:11.989Z,7.90
2024-03-09T19:27:42.966Z,8.75
2024-03-09T19:30:12.265Z,8.65
2024-03-09T19:32:39.549Z,8.88
2024-03-09T19:35:10.736Z,9.13
2024-03-09T19:37:40.969Z,9.40
2024-03-09T19:40:14.880Z,9.35
2024-03-09T19:42:46.468Z,10.02
2024-03-09T19:45:15.272Z,10.43
2024-03-09T19:47:42.517Z,10.52
2024-03-09T19:50:12.593Z,11.02
2024-03-09T19:52:39.810Z,10.45
2024-03-09T19:55:11.934Z,11.05
2024-03-09T19:57:42.071Z,10.73
2024-03-09T20:00:13.117Z,11.18
2024-03-09T20:02:40.582Z,12.25
2024-03-09T20:05:08.277Z,11.80
2024-03-09T20:07:35.741Z,11.43
2024-03-09T20:10:05.601Z,11.68
2024-03-09T20:12:34.668Z,12.02
2024-03-09T20:15:02.580Z,11.55
2024-03-09T20:17:30.887Z,12.10
2024-03-09T20:19:57.826Z,12.35
2024-03-09T20:22:25.265Z,12.27
2024-03-09T20:24:51.803Z,12.80
2024-03-09T20:27:18.448Z,12.57
2024-03-09T20:29:44.949Z,12.85
2024-03-09T20:32:11.600Z,12.50
2024-03-09T20:34:38.455Z,12.85
2024-03-09T20:37:04.990Z,13.30
2024-03-09T20:39:31.621Z,12.25
2024-03-09T20:41:58.131Z,13.02
2024-03-09T20:44:24.671Z,12.55
2024-03-09T20:46:51.792Z,13.52
2024-03-09T20:49:19.865Z,12.90
2024-03-09T20:51:47.725Z,13.80
2024-03-09T20:54:29.488Z,13.25
2024-03-09T20:56:56.059Z,13.10
2024-03-09T20:59:25.252Z,13.48
2024-03-09T21:01:51.974Z,13.60
2024-03-09T21:04:18.490Z,13.27
2024-03-09T21:06:44.971Z,13.27
2024-03-09T21:09:11.462Z,12.73
2024-03-09T21:11:38.125Z,14.52
2024-03-09T21:14:05.819Z,13.18
2024-03-09T21:16:32.746Z,13.07
2024-03-09T21:18:59.293Z,13.38
2024-03-09T21:21:25.804Z,12.88
2024-03-09T21:23:53.668Z,12.48
2024-03-09T21:26:20.243Z,12.30
2024-03-09T21:28:47.761Z,13.57
2024-03-09T21:31:14.334Z,12.77
2024-03-09T21:33:40.989Z,12.98
2024-03-09T21:36:08.229Z,12.52
2024-03-09T21:38:35.785Z,12.80
2024-03-09T21:41:02.349Z,12.60
2024-03-09T21:43:28.898Z,12.68
2024-03-09T21:45:55.416Z,12.60
2024-03-09T21:48:22.023Z,12.43
2024-03-09T21:50:59.458Z,13.45
2024-03-09T21:53:30.221Z,12.45
2024-03-09T21:55:56.869Z,11.43
2024-03-09T21:58:25.368Z,11.73
2024-03-09T22:00:51.959Z,12.05
2024-03-09T22:03:18.467Z,12.40
2024-03-09T22:05:46.742Z,12.20
2024-03-09T22:08:15.144Z,11.75
2024-03-09T22:10:42.494Z,12.10
2024-03-09T22:13:09.612Z,12.40
2024-03-09T22:15:36.161Z,11.73
2024-03-09T22:18:02.737Z,11.93
2024-03-09T22:20:29.582Z,12.00
2024-03-09T22:22:56.223Z,11.88
2024-03-09T22:25:27.746Z,11.27
2024-03-09T22:27:55.067Z,11.45
2024-03-09T22:30:22.715Z,11.50
2024-03-09T22:32:49.534Z,11.90
2024-03-09T22:35:17.653Z,11.68
2024-03-09T22:37:45.606Z,11.63
2024-03-09T22:40:14.521Z,11.40
2024-03-09T22:42:41.883Z,12.05
2024-03-09T22:45:12.520Z,11.07
2024-03-09T22:47:40.380Z,11.38
2024-03-09T22:50:08.318Z,11.38
2024-03-09T22:52:35.471Z,11.57
2024-03-09T22:55:02.282Z,11.32
2024-03-09T22:57:28.799Z,11.25
2024-03-09T22:59:55.776Z,10.90
2024-03-09T23:02:23.850Z,11.52
2024-03-09T23:04:51.408Z,11.10
2024-03-09T23:07:18.361Z,11.40
2024-03-09T23:09:46.303Z,10.68
2024-03-09T23:12:12.946Z,10.73
2024-03-09T23:14:40.793Z,10.95
2024-03-09T23:17:10.765Z,11.30
2024-03-09T23:19:38.549Z,10.70
2024-03-09T23:22:06.934Z,10.70
2024-03-09T23:24:37.870Z,11.07
2024-03-09T23:27:06.368Z,11.43
2024-03-09T23:29:33.742Z,10.90
2024-03-09T23:32:01.711Z,10.48
2024-03-09T23:34:31.303Z,10.82
2024-03-09T23:36:58.520Z,10.80
2024-03-09T23:39:25.303Z,9.70
2024-03-09T23:41:51.839Z,10.98
2024-03-09T23:44:20.508Z,10.57
2024-03-09T23:46:47.523Z,9.75
2024-03-09T23:49:15.628Z,10.23
2024-03-09T23:51:42.706Z,10.40
2024-03-09T23:54:10.567Z,10.80
2024-03-09T23:56:38.083Z,10.55
2024-03-09T23:59:07.544Z,11.32
